Latest Weather Observations for Low Head

IDT60801

Issued at 10:31 pm EDT Monday 4 March 2024 (issued every 10 minutes, with the page automatically refreshed every 10 minutes)

About weather observations | Map of weather stations | Latest weather observations for TAS | Other Formats
Station Details ID: 091293 Name: LOW HEAD Lat: -41.05 Lon: 146.79 Height: 3.0 m
Data from the previous 72 hours. | See also: Recent months at Low Head
Date/Time
EDT
Temp
°C
App
Temp
°C
Dew
Point
°C
Rel
Hum
%
Delta-T
°C
Wind Press
QNH
hPa
Press
MSL
hPa
Rain since
9am
mm
Dir  Spd
km/h
Gust
km/h
Spd
kts
Gust
kts
04/10:30pm 12.6 9.6 7.5 71 2.5 E 13 17 7 9 1024.7 1024.7 0.0
04/10:00pm 12.9 9.8 7.4 69 2.7 E 13 15 7 8 1024.6 1024.6 0.0
04/09:30pm 13.4 10.7 7.2 66 3.0 E 11 13 6 7 1024.6 1024.6 0.0
04/09:00pm 15.2 12.5 7.3 59 3.9 NNE 11 15 6 8 1024.2 1024.2 0.0
04/08:30pm 15.2 12.4 7.0 58 4.0 N 11 15 6 8 1024.0 1024.0 0.0
04/08:00pm 15.1 12.3 6.9 58 4.0 NNW 11 15 6 8 1024.0 1024.0 0.0
04/07:30pm 15.2 12.4 7.0 58 4.0 NW 11 15 6 8 1024.1 1024.1 0.0
04/07:00pm 15.4 12.1 6.4 55 4.3 NNW 13 17 7 9 1024.0 1024.0 0.0
04/06:30pm 16.0 12.5 7.2 56 4.4 NNW 15 19 8 10 1024.0 1024.0 0.0
04/06:00pm 16.1 11.9 7.3 56 4.3 NNW 19 22 10 12 1023.8 1023.8 0.0
04/05:30pm 16.2 11.8 6.6 53 4.7 NNW 19 22 10 12 1024.0 1024.0 0.0
04/05:00pm 16.6 12.0 6.4 51 5.0 NNW 20 24 11 13 1024.0 1024.0 0.0
04/04:30pm 17.1 11.7 6.3 49 5.3 NW 24 30 13 16 1024.3 1024.3 0.0
04/04:00pm 17.5 12.1 6.4 48 5.4 WNW 24 28 13 15 1024.1 1024.1 0.0
04/03:30pm 17.5 11.9 7.0 50 5.2 WNW 26 30 14 16 1024.3 1024.3 0.0
04/03:00pm 17.2 11.2 7.0 51 5.0 WNW 28 32 15 17 1024.6 1024.6 0.0
04/02:30pm 17.3 11.4 5.9 47 5.5 W 26 30 14 16 1024.8 1024.8 0.0
04/02:00pm 17.0 11.4 5.3 46 5.6 WNW 24 30 13 16 1024.9 1024.9 0.0
04/01:30pm 17.1 12.3 5.4 46 5.6 W 20 26 11 14 1025.0 1025.0 0.0
04/01:00pm 17.2 13.3 3.5 40 6.3 W 13 20 7 11 1025.1 1025.1 0.0
04/12:30pm 17.0 13.0 0.6 33 7.1 SE 11 19 6 10 1025.3 1025.3 0.0
04/12:00pm 15.7 10.7 1.4 38 6.2 SSE 17 22 9 12 1025.5 1025.5 0.0
04/11:30am 14.8 9.6 2.4 43 5.5 S 19 26 10 14 1026.1 1026.1 0.0
04/11:00am 14.8 9.2 1.3 40 5.8 SSE 20 28 11 15 1026.2 1026.2 0.0
04/10:30am 14.1 8.1 1.1 41 5.6 SSE 22 32 12 17 1026.0 1026.0 0.0
04/10:00am 13.6 8.7 1.9 45 5.0 SSE 17 22 9 12 1025.9 1025.9 0.0
04/09:30am 12.5 7.9 1.8 48 4.6 SE 15 20 8 11 1026.1 1026.1 0.0
04/09:00am 11.4 7.1 3.2 57 3.6 SSE 15 20 8 11 1025.9 1025.9 0.0
04/08:30am 10.1 7.2 4.9 70 2.3 SSE 9 13 5 7 1025.8 1025.8 0.0
04/08:00am 9.2 6.0 3.0 65 2.6 SSE 9 13 5 7 1025.3 1025.3 0.0
04/07:30am 8.6 5.1 3.6 71 2.2 ENE 11 15 6 8 1024.6 1024.6 0.0
04/07:00am 8.6 5.0 0.8 58 3.1 SE 9 11 5 6 1024.0 1024.0 0.0
04/06:30am 8.4 4.6 1.8 63 2.7 SE 11 11 6 6 1023.7 1023.7 0.0
04/06:00am 9.0 5.8 3.0 66 2.5 SE 9 13 5 7 1023.4 1023.4 0.0
04/05:30am 10.2 5.3 2.3 58 3.4 S 17 20 9 11 1023.1 1023.1 0.0
04/05:00am 8.7 5.1 0.7 57 3.2 SSE 9 11 5 6 1023.0 1023.0 0.0
04/04:30am 9.9 5.1 0.5 52 3.8 S 15 19 8 10 1022.7 1022.7 0.0
04/04:00am 10.7 5.6 1.0 51 4.0 SSW 17 24 9 13 1022.4 1022.4 0.0
04/03:30am 11.0 5.2 2.1 54 3.8 S 22 26 12 14 1021.9 1021.9 0.0
04/03:00am 10.9 5.6 1.7 53 3.9 S 19 22 10 12 1022.1 1022.1 0.0
04/02:30am 10.9 5.4 1.7 53 3.9 S 20 26 11 14 1022.2 1022.2 0.0
04/02:00am 11.0 4.9 0.7 49 4.2 S 22 26 12 14 1022.2 1022.2 0.0
04/01:30am 11.7 5.9 2.2 52 4.1 S 22 30 12 16 1021.9 1021.9 0.0
04/01:00am 11.2 5.8 1.2 50 4.2 SSE 19 26 10 14 1021.7 1021.7 0.0
04/12:30am 11.1 5.4 0.8 49 4.3 SSE 20 28 11 15 1021.3 1021.3 0.0
04/12:00am 12.8 6.0 2.9 51 4.3 S 28 37 15 20 1021.1 1021.1 0.0
 
Date/Time
EDT
Temp
°C
App
Temp
°C
Dew
Point
°C
Rel
Hum
%
Delta-T
°C
Wind Press
QNH
hPa
Press
MSL
hPa
Rain since
9am
mm
Dir  Spd
km/h
Gust
km/h
Spd
kts
Gust
kts
03/11:30pm 11.7 6.7 1.6 50 4.3 SSE 17 26 9 14 1020.8 1020.8 0.0
03/11:00pm 13.3 7.2 2.8 49 4.6 S 24 30 13 16 1020.4 1020.4 0.0
03/10:30pm 12.6 8.3 1.0 45 4.9 SSE 13 17 7 9 1020.6 1020.6 0.0
03/10:15pm 13.3 7.8 1.9 46 4.9 S 20 30 11 16 1020.1 1020.1 0.0
03/10:00pm 14.1 5.6 3.0 47 4.9 SSW 37 44 20 24 1019.5 1019.5 0.0
03/09:55pm 14.4 5.6 3.5 48 4.9 SSW 39 46 21 25 1019.2 1019.2 0.0
03/09:30pm 14.3 7.6 3.5 48 4.9 S 28 35 15 19 1019.1 1019.1 0.0
03/09:00pm 14.5 7.4 3.6 48 4.9 WSW 30 37 16 20 1018.4 1018.4 0.0
03/08:30pm 15.0 9.3 5.0 51 4.7 SW 24 30 13 16 1017.7 1017.7 0.0
03/08:00pm 15.4 7.9 4.2 47 5.2 SW 33 43 18 23 1016.7 1016.7 0.0
03/07:30pm 16.3 7.4 5.3 48 5.3 SW 41 46 22 25 1015.6 1015.6 0.0
03/07:00pm 17.2 8.8 5.8 47 5.5 SW 39 46 21 25 1015.0 1015.0 0.0
03/06:30pm 17.5 8.7 5.4 45 5.8 SW 41 48 22 26 1014.2 1014.2 0.0
03/06:00pm 18.0 9.1 4.9 42 6.3 WSW 41 46 22 25 1013.5 1013.5 0.0
03/05:30pm 18.3 8.6 4.1 39 6.7 SW 44 56 24 30 1013.0 1013.0 0.0
03/05:00pm 18.6 8.5 5.5 42 6.4 SW 48 61 26 33 1012.0 1012.0 0.0
03/04:30pm 18.9 8.7 5.4 41 6.6 SW 48 69 26 37 1011.6 1011.6 0.0
03/04:22pm 18.9 8.8 3.5 36 7.2 SW 46 65 25 35 1011.5 1011.5 0.0
03/04:11pm 19.3 8.8 5.7 41 6.7 WSW 50 65 27 35 1011.2 1011.2 0.0
03/04:03pm 18.5 9.8 7.9 50 5.4 WSW 43 65 23 35 1011.2 1011.2 0.0
03/04:00pm 18.7 11.2 8.1 50 5.4 WSW 37 57 20 31 1011.2 1011.2 0.0
03/03:34pm 20.0 12.1 6.0 40 7.0 SW 37 56 20 30 1011.0 1011.0 0.0
03/03:30pm 19.7 10.7 4.6 37 7.3 WSW 41 56 22 30 1011.1 1011.1 0.0
03/03:08pm 19.2 9.9 6.0 42 6.5 WSW 44 63 24 34 1010.8 1010.8 0.0
03/03:00pm 19.0 9.1 8.4 50 5.5 WSW 50 63 27 34 1010.4 1010.4 0.0
03/02:30pm 18.9 10.4 8.6 51 5.3 W 43 52 23 28 1010.3 1010.3 0.0
03/02:00pm 18.8 9.6 7.9 49 5.6 W 46 56 25 30 1009.9 1009.9 0.0
03/01:30pm 18.5 8.6 8.2 51 5.3 WSW 50 61 27 33 1009.5 1009.5 0.0
03/01:08pm 19.0 10.0 7.1 46 6.0 WSW 44 65 24 35 1009.5 1009.5 0.0
03/01:00pm 19.2 10.5 7.9 48 5.8 WSW 43 52 23 28 1009.5 1009.5 0.0
03/12:30pm 18.8 10.4 7.3 47 5.8 WSW 41 50 22 27 1009.5 1009.5 0.0
03/12:00pm 18.3 9.4 6.8 47 5.7 WSW 43 54 23 29 1009.4 1009.4 0.0
03/11:30am 17.3 7.2 5.6 46 5.7 WSW 48 61 26 33 1009.4 1009.4 0.0
03/11:00am 17.6 5.7 7.1 50 5.3 WSW 59 70 32 38 1008.6 1008.6 0.0
03/10:30am 17.5 6.1 8.9 57 4.4 WSW 59 76 32 41 1008.1 1008.1 0.0
03/10:27am 17.5 6.4 8.6 56 4.6 WSW 57 76 31 41 1008.1 1008.1 0.0
03/10:00am 17.3 6.3 10.4 64 3.7 W 59 72 32 39 1007.7 1007.7 0.0
03/09:30am 17.1 6.8 11.2 68 3.2 W 56 67 30 36 1007.9 1007.9 0.0
03/09:00am 16.7 6.6 12.3 75 2.4 W 57 70 31 38 1007.9 1007.9 0.0
03/08:40am 16.4 5.9 12.4 77 2.2 W 59 78 32 42 1008.1 1008.1 0.0
03/08:30am 15.9 5.0 12.1 78 2.1 W 61 78 33 42 1007.9 1007.9 0.0
03/08:00am 16.0 5.1 12.2 78 2.1 W 61 72 33 39 1008.0 1008.0 0.0
03/07:30am 15.9 5.7 12.1 78 2.1 W 57 69 31 37 1008.5 1008.5 0.0
03/07:00am 16.3 6.4 12.5 78 2.1 W 56 65 30 35 1008.5 1008.5 0.0
03/06:30am 16.1 6.1 11.9 76 2.3 W 56 67 30 36 1009.0 1009.0 0.0
03/06:00am 15.8 6.3 11.2 74 2.5 W 52 65 28 35 1009.1 1009.1 0.0
03/05:30am 15.8 7.0 10.8 72 2.7 W 48 59 26 32 1009.6 1009.6 0.0
03/05:00am 15.4 6.0 10.2 71 2.7 W 50 59 27 32 1010.1 1010.1 0.0
03/04:30am 15.3 5.1 10.1 71 2.7 W 54 63 29 34 1010.4 1010.4 0.0
03/04:00am 15.5 6.9 10.3 71 2.7 W 46 57 25 31 1010.9 1010.9 0.0
03/03:30am 15.1 6.6 9.2 68 3.0 W 44 54 24 29 1011.2 1011.2 0.0
03/03:00am 14.7 5.4 9.3 70 2.8 W 48 57 26 31 1011.6 1011.6 0.0
03/02:30am 14.8 4.8 9.2 69 2.9 W 52 65 28 35 1011.9 1011.9 0.0
03/02:00am 14.6 4.5 8.8 68 2.9 W 52 65 28 35 1012.3 1012.3 0.0
03/01:30am 14.8 4.3 8.7 67 3.1 WSW 54 63 29 34 1012.3 1012.3 0.0
03/01:00am 14.4 3.5 7.2 62 3.5 WSW 54 65 29 35 1012.2 1012.2 0.0
03/12:30am 14.4 5.0 7.2 62 3.5 W 46 57 25 31 1013.2 1013.2 0.0
03/12:00am 14.4 6.2 8.1 66 3.1 W 41 56 22 30 1013.6 1013.6 0.0
 
Date/Time
EDT
Temp
°C
App
Temp
°C
Dew
Point
°C
Rel
Hum
%
Delta-T
°C
Wind Press
QNH
hPa
Press
MSL
hPa
Rain since
9am
mm
Dir  Spd
km/h
Gust
km/h
Spd
kts
Gust
kts
02/11:30pm 14.6 6.0 8.1 65 3.2 W 43 50 23 27 1014.0 1014.0 0.0
02/11:00pm 14.7 6.7 7.3 61 3.6 WSW 39 46 21 25 1014.3 1014.3 0.0
02/10:30pm 15.1 7.0 8.6 65 3.3 WSW 41 52 22 28 1014.6 1014.6 0.0
02/10:00pm 15.0 7.5 6.3 56 4.2 WSW 35 43 19 23 1014.7 1014.7 0.0
02/09:30pm 15.8 7.0 8.1 60 3.9 WSW 44 52 24 28 1014.3 1014.3 0.0
02/09:00pm 16.1 7.2 7.6 57 4.2 WSW 44 54 24 29 1014.2 1014.2 0.0
02/08:30pm 16.8 7.4 7.2 53 4.8 WSW 46 54 25 29 1013.9 1013.9 0.0
02/08:00pm 17.7 9.3 8.8 56 4.6 WSW 43 48 23 26 1013.9 1013.9 0.0
02/07:30pm 18.3 11.1 7.7 50 5.4 W 35 41 19 22 1013.6 1013.6 0.0
02/07:00pm 18.8 12.6 7.9 49 5.6 W 30 37 16 20 1013.6 1013.6 0.0
02/06:30pm 19.2 12.4 9.1 52 5.3 WNW 35 39 19 21 1013.9 1013.9 0.0
02/06:00pm 19.4 13.0 8.7 50 5.6 WNW 32 39 17 21 1013.9 1013.9 0.0
02/05:30pm 19.6 13.1 8.3 48 5.9 WNW 32 37 17 20 1014.1 1014.1 0.0
02/05:00pm 19.5 13.0 9.1 51 5.5 WNW 33 39 18 21 1014.3 1014.3 0.0
02/04:30pm 19.8 13.5 9.1 50 5.6 WNW 32 37 17 20 1014.5 1014.5 0.0
02/04:00pm 20.0 13.6 8.7 48 5.9 WNW 32 39 17 21 1015.0 1015.0 0.0
02/03:30pm 19.9 14.3 8.6 48 5.9 WNW 28 35 15 19 1015.2 1015.2 0.0
02/03:00pm 20.1 13.6 8.1 46 6.2 WNW 32 35 17 19 1015.2 1015.2 0.0
02/02:30pm 19.7 13.2 8.1 47 6.0 WNW 32 39 17 21 1015.3 1015.3 0.0
02/02:00pm 19.3 12.3 8.3 49 5.7 WNW 35 39 19 21 1015.3 1015.3 0.0
02/01:30pm 18.9 12.0 6.4 44 6.2 WNW 32 39 17 21 1015.3 1015.3 0.0
02/01:00pm 18.5 12.9 5.4 42 6.4 WNW 24 33 13 18 1015.3 1015.3 0.0
02/12:30pm 18.4 12.5 5.6 43 6.2 W 26 32 14 17 1015.3 1015.3 0.0
02/12:00pm 17.9 12.5 4.5 41 6.4 WSW 22 30 12 16 1015.4 1015.4 0.0
02/11:30am 17.2 12.7 4.2 42 6.1 WSW 17 28 9 15 1015.6 1015.6 0.0
02/11:00am 16.7 11.7 3.4 41 6.1 WSW 19 24 10 13 1015.8 1015.8 0.0
02/10:30am 16.4 11.1 4.8 46 5.5 SW 22 30 12 16 1015.5 1015.5 0.0
02/10:00am 16.2 11.0 5.5 49 5.1 SW 22 30 12 16 1015.3 1015.3 0.0
02/09:30am 16.1 9.4 5.7 50 5.0 SW 30 35 16 19 1015.0 1015.0 0.0
02/09:00am 15.5 9.8 6.8 56 4.3 SW 26 35 14 19 1014.7 1014.7 0.0
02/08:30am 15.0 9.5 6.0 55 4.3 WSW 24 30 13 16 1014.4 1014.4 0.0
02/08:00am 14.6 7.7 6.4 58 4.0 WSW 32 37 17 20 1013.8 1013.8 0.0
02/07:30am 15.0 8.3 7.3 60 3.8 SW 32 39 17 21 1013.2 1013.2 0.0
02/07:00am 15.0 8.1 7.1 59 3.9 SW 33 39 18 21 1012.6 1012.6 0.0
02/06:30am 15.3 7.6 7.1 58 4.0 SW 37 48 20 26 1011.9 1011.9 0.0
02/06:00am 15.7 7.8 7.7 59 4.0 WSW 39 46 21 25 1011.5 1011.5 0.0
02/05:30am 15.8 7.1 7.8 59 4.0 WSW 43 52 23 28 1011.0 1011.0 0.0
02/05:00am 16.2 7.7 9.2 63 3.6 WSW 44 54 24 29 1010.6 1010.6 0.0
02/04:30am 16.3 8.0 9.3 63 3.6 WSW 43 50 23 27 1010.5 1010.5 0.0
02/04:00am 16.5 10.5 10.1 66 3.4 WSW 32 39 17 21 1010.6 1010.6 0.0
02/03:30am 16.5 8.5 10.4 67 3.2 WSW 43 50 23 27 1010.5 1010.5 0.0
02/03:00am 16.8 9.7 12.1 74 2.6 W 41 50 22 27 1010.5 1010.5 0.0
02/02:30am 16.7 9.6 12.3 75 2.4 W 41 50 22 27 1010.2 1010.2 0.0
02/02:00am 16.7 9.3 12.3 75 2.4 W 43 50 23 27 1009.8 1009.8 0.0
02/01:30am 16.8 9.2 11.9 73 2.7 W 43 50 23 27 1009.8 1009.8 0.0
02/01:00am 17.0 9.4 11.7 71 2.9 W 43 52 23 28 1009.5 1009.5 0.0
02/12:30am 17.3 8.7 11.8 70 3.0 WSW 48 57 26 31 1009.7 1009.7 0.0
02/12:00am 17.3 9.7 12.4 73 2.7 W 44 54 24 29 1009.9 1009.9 0.0
 
Date/Time
EDT
Temp
°C
App
Temp
°C
Dew
Point
°C
Rel
Hum
%
Delta-T
°C
Wind Press
QNH
hPa
Press
MSL
hPa
Rain since
9am
mm
Dir  Spd
km/h
Gust
km/h
Spd
kts
Gust
kts
01/11:30pm 17.6 10.1 12.7 73 2.7 W 44 52 24 28 1009.7 1009.7 0.0
01/11:00pm 17.6 10.2 12.3 71 2.9 W 43 50 23 27 1009.7 1009.7 0.0

Other formats

Comma delimited format used in spreadsheet applications
http://www.bom.gov.au/fwo/IDT60801/IDT60801.95964.axf

JavaScript Object Notation format (JSON) in row-major order
http://www.bom.gov.au/fwo/IDT60801/IDT60801.95964.json

Data quality

Most of these data are generated automatically and are frequently updated. Quality checks on data are not normally performed. It is possible for incorrect values to appear. Refer to information at About Latest Weather Observations and please check the disclaimer before using these data.